Terminal Aerodrome Forecast
Issued by NWS Austin/San Antonio, TX

Home | Current Version | Previous Version | Text Only | Print | Product List | Glossary On
Versions: 1 2 3 4 5 6 7 8 9 10 11 12 13 14 15 16 17 18 19 20 21 22 23 24 25 26 27 28 29 30 31
000
FTUS44 KEWX 202300
TAFAUS
TAF
KAUS 202326Z 2100/2206 14008KT P6SM BKN040
     FM210400 15007KT P6SM BKN028
     FM210700 16010KT P6SM BKN015
     FM210900 17007KT 4SM BR OVC007
     FM211500 18010KT P6SM OVC015
     FM211800 19012KT P6SM SCT030 BKN040
     FM220000 16010KT P6SM SCT050=

USA.gov is the U.S. government's official web portal to all federal, state and local government web resources and services.